Time;durP1;ratioP1;P1;durP2;ratioP2;P2;SDS_P1;SDS_P2;PMS_P1;PMS_P2;Temp;Humidity;BMP_temperature;BMP_pressure;BME280_temperature;BME280_humidity;BME280_pressure;Samples;Min_cycle;Max_cycle;Signal;HPM_P1;HPM_P2
2021/06/16 00:01:10;;;;;;;5.80;3.67;;;11.80;77.10;;;;;;5073171;28;20209;-87
2021/06/16 00:03:36;;;;;;;9.47;4.30;;;11.70;76.40;;;;;;5055258;28;20179;-86
2021/06/16 00:06:01;;;;;;;10.70;3.93;;;11.70;77.20;;;;;;5073053;28;20175;-86
2021/06/16 00:08:27;;;;;;;11.37;4.07;;;11.60;77.70;;;;;;5055145;28;20186;-86
2021/06/16 00:10:53;;;;;;;6.33;3.90;;;11.60;77.50;;;;;;5055162;28;20249;-86
2021/06/16 00:13:19;;;;;;;7.63;3.63;;;11.60;77.00;;;;;;5073122;28;20170;-86
2021/06/16 00:15:46;;;;;;;8.20;4.00;;;11.60;76.50;;;;;;5055042;28;20531;-86
2021/06/16 00:18:12;;;;;;;8.60;3.97;;;11.60;76.20;;;;;;5073049;28;20167;-86
2021/06/16 00:20:38;;;;;;;8.53;5.33;;;11.60;75.90;;;;;;5072839;28;20655;-87
2021/06/16 00:23:05;;;;;;;7.07;3.97;;;11.50;76.40;;;;;;5073271;28;20195;-86
2021/06/16 00:25:32;;;;;;;11.30;5.03;;;11.50;76.30;;;;;;5072889;28;20689;-86
2021/06/16 00:27:58;;;;;;;7.50;4.17;;;11.50;75.80;;;;;;5072975;28;20175;-86
2021/06/16 00:30:24;;;;;;;9.27;4.27;;;11.50;75.60;;;;;;5072719;28;20214;-86
2021/06/16 00:32:50;;;;;;;8.47;4.40;;;11.50;75.40;;;;;;5054958;28;20182;-86
2021/06/16 00:35:19;;;;;;;8.47;4.03;;;11.40;75.30;;;;;;5054921;28;20643;-86
2021/06/16 00:37:46;;;;;;;9.67;4.40;;;11.30;75.50;;;;;;5072792;28;20634;-86
2021/06/16 00:40:15;;;;;;;11.53;4.87;;;11.30;75.50;;;;;;5072667;28;20196;-86
2021/06/16 00:42:41;;;;;;;9.73;4.50;;;11.30;75.70;;;;;;5072760;28;20178;-85
2021/06/16 00:45:09;;;;;;;9.77;4.00;;;11.30;75.60;;;;;;5054885;28;20183;-86
2021/06/16 00:47:35;;;;;;;10.47;3.93;;;11.20;76.70;;;;;;5073053;28;20262;-85
2021/06/16 00:50:04;;;;;;;6.33;4.00;;;11.20;76.70;;;;;;5072681;28;20203;-85
2021/06/16 00:52:30;;;;;;;6.97;3.57;;;11.20;76.40;;;;;;5074418;28;20176;-86
2021/06/16 00:54:55;;;;;;;6.67;3.67;;;11.10;76.20;;;;;;5058480;28;20179;-86
2021/06/16 00:57:21;;;;;;;10.97;4.50;;;11.00;76.20;;;;;;5076768;28;20171;-86
2021/06/16 01:00:05;;;;;;;9.13;4.37;;;10.90;77.30;;;;;;5058459;28;20215;-86
2021/06/16 01:02:36;;;;;;;9.37;4.23;;;10.90;77.60;;;;;;5058594;28;20243;-86
2021/06/16 01:05:06;;;;;;;11.77;5.37;;;10.90;77.80;;;;;;5058526;28;20266;-86
2021/06/16 01:07:39;;;;;;;10.60;5.23;;;10.80;78.10;;;;;;5076301;28;20167;-86
2021/06/16 01:10:07;;;;;;;15.50;5.00;;;10.80;79.00;;;;;;5076053;28;20264;-86
2021/06/16 01:12:55;;;;;;;8.43;4.50;;;10.50;79.40;;;;;;5058268;28;20171;-86
2021/06/16 01:15:24;;;;;;;11.80;5.03;;;10.30;80.00;;;;;;5021538;28;20215;-86
2021/06/16 01:17:57;;;;;;;6.77;4.33;;;10.30;80.20;;;;;;5058161;28;20182;-85
2021/06/16 01:20:38;;;;;;;10.80;4.17;;;10.30;80.50;;;;;;5075895;28;20203;-85
2021/06/16 01:23:07;;;;;;;7.33;3.90;;;10.30;80.50;;;;;;5076011;28;20174;-86
2021/06/16 01:26:08;;;;;;;6.67;3.80;;;10.30;80.20;;;;;;5058017;28;20171;-86
2021/06/16 01:28:38;;;;;;;4.90;3.30;;;10.30;79.80;;;;;;5064846;28;20187;-85
2021/06/16 01:31:05;;;;;;;6.40;3.17;;;10.50;79.10;;;;;;5075945;28;20254;-85
2021/06/16 01:33:32;;;;;;;4.80;3.50;;;10.50;78.50;;;;;;5058027;28;20175;-86
2021/06/16 01:35:59;;;;;;;5.63;3.03;;;10.50;77.90;;;;;;5057751;28;20175;-86
2021/06/16 01:38:25;;;;;;;4.63;3.30;;;10.50;77.50;;;;;;5057668;28;20172;-86
2021/06/16 01:40:59;;;;;;;8.00;3.50;;;10.40;77.10;;;;;;5057543;28;20203;-86
2021/06/16 01:43:25;;;;;;;8.83;3.93;;;10.40;76.70;;;;;;5075641;28;20163;-86
2021/06/16 01:45:53;;;;;;;8.43;4.13;;;10.30;76.60;;;;;;5075606;28;20202;-86
2021/06/16 01:48:21;;;;;;;7.47;3.70;;;10.30;76.50;;;;;;5075586;28;20550;-86
2021/06/16 01:50:49;;;;;;;6.40;4.30;;;10.30;76.30;;;;;;5057371;28;20218;-86
2021/06/16 01:53:16;;;;;;;10.20;4.90;;;10.30;76.10;;;;;;5057449;28;20211;-85
2021/06/16 01:55:42;;;;;;;9.47;5.47;;;10.30;76.10;;;;;;5057389;28;20667;-86
2021/06/16 01:58:09;;;;;;;16.13;6.03;;;10.20;76.70;;;;;;5075407;28;20168;-86
2021/06/16 02:00:39;;;;;;;13.60;5.60;;;10.20;76.70;;;;;;5145482;22;20227;-88
2021/06/16 02:03:05;;;;;;;19.43;8.87;;;10.10;76.60;;;;;;5075304;28;20239;-89
2021/06/16 02:05:31;;;;;;;19.93;8.17;;;10.10;77.00;;;;;;5057762;28;20620;-89
2021/06/16 02:08:20;;;;;;;21.83;10.10;;;10.00;77.50;;;;;;5057720;28;20172;-89
2021/06/16 02:10:49;;;;;;;22.23;9.20;;;10.00;77.20;;;;;;5056708;28;20215;-89
2021/06/16 02:13:32;;;;;;;17.23;8.80;;;10.10;77.20;;;;;;5057754;28;20175;-88
2021/06/16 02:16:05;;;;;;;18.50;8.70;;;10.00;77.10;;;;;;5058157;28;20164;-89
2021/06/16 02:18:40;;;;;;;22.30;10.27;;;10.00;77.10;;;;;;5057887;28;20160;-88
2021/06/16 02:21:07;;;;;;;25.30;10.60;;;10.00;78.20;;;;;;5057580;28;20195;-89
2021/06/16 02:23:32;;;;;;;23.83;11.20;;;10.00;79.20;;;;;;5057100;28;20266;-89
2021/06/16 02:25:58;;;;;;;17.50;9.87;;;9.90;79.10;;;;;;5057334;28;20694;-88
2021/06/16 02:28:24;;;;;;;17.23;7.67;;;9.90;78.90;;;;;;5057036;28;20647;-88
2021/06/16 02:30:50;;;;;;;17.57;8.70;;;9.90;79.80;;;;;;5074769;28;20203;-89
2021/06/16 02:33:16;;;;;;;8.43;6.90;;;9.90;80.40;;;;;;5056957;28;20610;-88
2021/06/16 02:35:41;;;;;;;9.97;6.57;;;9.80;81.20;;;;;;5056883;28;20203;-89
2021/06/16 02:38:18;;;;;;;10.10;6.40;;;9.80;81.20;;;;;;5056916;28;20266;-89
2021/06/16 02:40:45;;;;;;;7.83;5.40;;;9.80;80.70;;;;;;5074713;28;20197;-88
2021/06/16 02:43:12;;;;;;;8.80;5.17;;;9.70;81.10;;;;;;5056748;28;20179;-88
2021/06/16 02:45:38;;;;;;;6.27;4.47;;;9.80;80.60;;;;;;5056981;28;20197;-88
2021/06/16 02:48:06;;;;;;;6.10;4.10;;;9.70;80.70;;;;;;5074550;28;20185;-89
2021/06/16 02:50:33;;;;;;;4.40;3.70;;;9.70;81.00;;;;;;5056427;28;20211;-88
2021/06/16 02:53:06;;;;;;;6.33;4.03;;;9.70;80.90;;;;;;5057478;28;20643;-89
2021/06/16 02:55:32;;;;;;;5.33;3.73;;;9.70;80.50;;;;;;5056547;28;20262;-89
2021/06/16 02:57:58;;;;;;;6.40;3.73;;;9.70;80.40;;;;;;5056458;28;20237;-89
2021/06/16 03:00:25;;;;;;;3.03;2.70;;;9.60;80.30;;;;;;5056627;28;20306;-88
2021/06/16 03:02:51;;;;;;;4.97;3.00;;;9.70;79.90;;;;;;5056384;28;20183;-89
2021/06/16 03:05:25;;;;;;;4.50;3.10;;;9.70;79.40;;;;;;5056627;28;20551;-88
2021/06/16 03:07:53;;;;;;;3.87;3.07;;;9.80;79.20;;;;;;5056388;28;20161;-88
2021/06/16 03:10:21;;;;;;;3.43;3.00;;;9.90;79.40;;;;;;5056052;28;20297;-89
2021/06/16 03:12:52;;;;;;;7.93;3.00;;;10.20;79.40;;;;;;5057018;28;20312;-89
2021/06/16 03:15:19;;;;;;;4.50;3.17;;;10.50;78.70;;;;;;5055921;28;20175;-89
2021/06/16 03:17:46;;;;;;;3.47;3.00;;;10.70;77.50;;;;;;5073998;28;20250;-88
2021/06/16 03:20:14;;;;;;;4.77;2.87;;;10.80;76.50;;;;;;5056280;28;20199;-89
2021/06/16 03:22:41;;;;;;;5.90;2.90;;;10.90;75.50;;;;;;5056000;28;20172;-89
2021/06/16 03:25:09;;;;;;;7.57;4.03;;;10.90;75.30;;;;;;5073818;28;20539;-89
2021/06/16 03:27:34;;;;;;;5.90;3.30;;;10.90;75.80;;;;;;5055962;28;20171;-89
2021/06/16 03:30:01;;;;;;;5.43;3.73;;;10.80;76.30;;;;;;5056089;28;20214;-89
2021/06/16 03:32:27;;;;;;;5.87;3.73;;;10.80;76.40;;;;;;5055891;28;20261;-89
2021/06/16 03:34:54;;;;;;;6.10;3.57;;;10.80;76.60;;;;;;5055771;28;20175;-89
2021/06/16 03:37:20;;;;;;;5.90;3.93;;;10.80;76.40;;;;;;5055798;28;20198;-89
2021/06/16 03:39:51;;;;;;;5.03;3.00;;;10.70;77.40;;;;;;5055668;28;20187;-89
2021/06/16 03:42:18;;;;;;;8.93;3.17;;;10.70;77.40;;;;;;5055818;28;20178;-89
2021/06/16 03:44:45;;;;;;;5.87;2.70;;;10.80;78.50;;;;;;5073603;28;20662;-89
2021/06/16 03:47:13;;;;;;;2.77;2.57;;;11.00;79.10;;;;;;5055731;28;20185;-89
2021/06/16 03:49:42;;;;;;;2.80;2.40;;;11.10;79.40;;;;;;5073803;28;20206;-88
2021/06/16 03:52:09;;;;;;;3.03;2.50;;;11.30;79.50;;;;;;5055596;28;20202;-89
2021/06/16 03:54:36;;;;;;;3.13;2.60;;;11.40;79.00;;;;;;5056377;28;20171;-89
2021/06/16 03:57:02;;;;;;;2.47;2.27;;;11.40;79.10;;;;;;5055496;28;20175;-89
2021/06/16 03:59:28;;;;;;;4.17;2.83;;;11.40;79.20;;;;;;5055328;28;20573;-89
2021/06/16 04:01:54;;;;;;;3.50;2.20;;;11.50;79.00;;;;;;5056086;28;20254;-89
2021/06/16 04:04:20;;;;;;;3.17;2.70;;;11.50;78.90;;;;;;5073366;28;20258;-89
2021/06/16 04:06:46;;;;;;;4.27;3.20;;;11.50;78.90;;;;;;5055328;28;20171;-89
2021/06/16 04:09:14;;;;;;;6.67;3.50;;;11.70;79.00;;;;;;5073162;28;20207;-89
2021/06/16 04:11:41;;;;;;;5.40;4.03;;;11.80;79.20;;;;;;5055319;28;20171;-89
2021/06/16 04:14:07;;;;;;;9.10;4.90;;;11.90;80.00;;;;;;5055637;28;20217;-89
2021/06/16 04:16:33;;;;;;;12.60;6.23;;;12.00;79.90;;;;;;5055330;28;20654;-89
2021/06/16 04:18:59;;;;;;;11.97;6.70;;;11.80;80.80;;;;;;5055227;28;20313;-89
2021/06/16 04:21:25;;;;;;;18.10;8.03;;;11.50;82.20;;;;;;5073167;28;20171;-89
2021/06/16 04:23:51;;;;;;;15.43;9.27;;;11.40;82.70;;;;;;5055249;28;20181;-89
2021/06/16 04:26:19;;;;;;;16.23;9.77;;;11.30;83.60;;;;;;5055152;28;20179;-89
2021/06/16 04:28:45;;;;;;;15.27;7.80;;;11.30;83.90;;;;;;5059485;28;20175;-89
2021/06/16 04:31:11;;;;;;;15.93;7.97;;;11.40;84.10;;;;;;5059251;28;20219;-89
2021/06/16 04:33:37;;;;;;;15.40;7.67;;;11.40;84.10;;;;;;5077177;28;20202;-89
2021/06/16 04:36:04;;;;;;;22.93;8.80;;;11.50;84.00;;;;;;5059130;28;20199;-89
2021/06/16 04:38:30;;;;;;;10.73;6.93;;;11.60;84.10;;;;;;5059181;28;20712;-89
2021/06/16 04:40:56;;;;;;;21.70;8.03;;;11.70;83.80;;;;;;5059004;28;20333;-89
2021/06/16 04:43:22;;;;;;;12.17;7.43;;;11.70;84.20;;;;;;5076906;28;20221;-89
2021/06/16 04:45:48;;;;;;;20.17;7.80;;;11.70;84.80;;;;;;5059355;28;20175;-89
2021/06/16 04:48:13;;;;;;;17.57;8.30;;;11.70;85.10;;;;;;5059153;28;20297;-89
2021/06/16 04:50:39;;;;;;;22.10;8.73;;;11.70;85.30;;;;;;5076673;28;20256;-89
2021/06/16 04:53:05;;;;;;;29.73;8.63;;;11.70;85.90;;;;;;5058906;28;20232;-89
2021/06/16 04:55:31;;;;;;;21.77;9.07;;;11.80;86.00;;;;;;5076733;28;20164;-89
2021/06/16 04:57:57;;;;;;;16.83;8.83;;;11.90;86.00;;;;;;5058766;28;20175;-89
2021/06/16 05:00:23;;;;;;;20.63;8.97;;;12.00;86.00;;;;;;5058929;28;20329;-90
2021/06/16 05:02:55;;;;;;;19.40;8.40;;;12.00;86.00;;;;;;5076543;28;20546;-89
2021/06/16 05:05:23;;;;;;;12.00;7.20;;;12.10;86.20;;;;;;5059486;28;20169;-89
2021/06/16 05:07:48;;;;;;;19.37;9.00;;;12.20;86.40;;;;;;5076476;28;20183;-89
2021/06/16 05:10:14;;;;;;;15.93;7.27;;;12.30;86.50;;;;;;5058471;28;20207;-89
2021/06/16 05:12:41;;;;;;;16.27;7.20;;;12.40;86.50;;;;;;5058516;28;20178;-89
2021/06/16 05:15:08;;;;;;;15.03;7.77;;;12.50;86.60;;;;;;5076616;28;20187;-89
2021/06/16 05:17:33;;;;;;;19.87;7.10;;;12.60;86.70;;;;;;5058407;28;20596;-89
2021/06/16 05:20:00;;;;;;;17.57;7.93;;;12.80;86.80;;;;;;5058259;28;20191;-89
2021/06/16 05:22:28;;;;;;;19.87;7.90;;;12.90;86.50;;;;;;5058324;28;20278;-89
2021/06/16 05:24:54;;;;;;;18.93;8.33;;;13.00;86.60;;;;;;5076134;28;20191;-89
2021/06/16 05:27:20;;;;;;;16.43;7.63;;;13.30;86.70;;;;;;5058263;28;20180;-89
2021/06/16 05:29:46;;;;;;;13.57;7.60;;;13.50;86.70;;;;;;5058067;28;20218;-89
2021/06/16 05:32:13;;;;;;;18.97;9.37;;;13.70;86.50;;;;;;5058101;28;20245;-90
2021/06/16 05:34:38;;;;;;;14.93;7.60;;;13.90;86.20;;;;;;5058443;28;20172;-90
2021/06/16 05:37:09;;;;;;;13.73;6.40;;;14.00;85.90;;;;;;5076079;28;20167;-89
2021/06/16 05:39:35;;;;;;;12.77;5.93;;;14.20;85.70;;;;;;5075654;28;20230;-90
2021/06/16 05:42:01;;;;;;;15.00;6.63;;;14.40;84.60;;;;;;5075869;28;20175;-90
2021/06/16 05:44:26;;;;;;;16.13;6.57;;;14.40;83.70;;;;;;5057878;28;20175;-90
2021/06/16 05:46:52;;;;;;;16.10;6.07;;;14.60;84.70;;;;;;5057934;28;20203;-90
2021/06/16 05:49:18;;;;;;;12.07;6.60;;;14.80;84.40;;;;;;5075580;28;20566;-90
2021/06/16 05:51:43;;;;;;;15.03;6.67;;;14.80;82.90;;;;;;5075708;28;20172;-90
2021/06/16 05:54:12;;;;;;;12.07;6.37;;;14.90;83.40;;;;;;5075633;28;20172;-90
2021/06/16 05:56:39;;;;;;;8.30;5.30;;;15.20;82.90;;;;;;5075608;28;20257;-90
2021/06/16 05:59:05;;;;;;;13.13;5.83;;;15.20;81.60;;;;;;5075406;28;20241;-91
2021/06/16 06:01:32;;;;;;;12.00;5.63;;;15.20;81.40;;;;;;5057619;28;20187;-90
2021/06/16 06:03:58;;;;;;;9.10;5.33;;;15.20;82.00;;;;;;5057549;28;20629;-90
2021/06/16 06:06:23;;;;;;;11.53;5.53;;;15.40;82.80;;;;;;5057486;28;20338;-90
2021/06/16 06:08:49;;;;;;;11.10;5.60;;;15.60;82.50;;;;;;5075325;28;20262;-90
2021/06/16 06:11:15;;;;;;;16.87;6.00;;;15.70;82.30;;;;;;5075189;28;20197;-90
2021/06/16 06:13:40;;;;;;;9.10;4.80;;;16.00;82.30;;;;;;5057337;28;20577;-90
2021/06/16 06:16:06;;;;;;;7.20;4.20;;;16.20;80.70;;;;;;5057330;28;20203;-90
2021/06/16 06:18:32;;;;;;;12.63;4.22;;;16.20;79.30;;;;;;5075171;28;20659;-90
2021/06/16 06:20:57;;;;;;;11.68;4.28;;;16.40;79.30;;;;;;5057133;28;20199;-90
2021/06/16 06:23:23;;;;;;;10.52;3.38;;;16.70;78.20;;;;;;5075306;28;20225;-91
2021/06/16 06:25:48;;;;;;;9.20;3.10;;;16.90;76.90;;;;;;5075154;28;20697;-90
2021/06/16 06:28:15;;;;;;;4.38;3.00;;;17.00;76.00;;;;;;5057075;28;20183;-91
2021/06/16 06:30:40;;;;;;;14.02;3.13;;;16.90;75.60;;;;;;5074811;28;20722;-91
2021/06/16 06:33:06;;;;;;;9.70;3.28;;;17.20;76.00;;;;;;5056986;28;20179;-91
2021/06/16 06:35:32;;;;;;;14.02;3.25;;;17.30;74.70;;;;;;5056929;28;20174;-91
2021/06/16 06:37:57;;;;;;;8.80;2.70;;;17.30;75.20;;;;;;5057077;28;20175;-90
2021/06/16 06:40:23;;;;;;;8.05;2.65;;;17.20;75.50;;;;;;5056868;28;20272;-91
2021/06/16 06:42:49;;;;;;;9.00;2.33;;;17.40;75.50;;;;;;5074757;28;20175;-91
2021/06/16 06:45:15;;;;;;;13.73;2.50;;;17.50;74.20;;;;;;5074676;28;20713;-90
2021/06/16 06:47:40;;;;;;;7.10;2.50;;;17.80;73.40;;;;;;5074607;28;20228;-89
2021/06/16 06:50:13;;;;;;;5.63;2.28;;;18.10;71.90;;;;;;5073519;28;20233;-89
2021/06/16 06:52:39;;;;;;;8.82;2.50;;;18.10;70.20;;;;;;5056702;28;20172;-90
2021/06/16 06:55:04;;;;;;;6.93;1.73;;;17.70;69.10;;;;;;5074694;28;20669;-90
2021/06/16 06:57:30;;;;;;;6.60;1.83;;;18.10;68.30;;;;;;5056748;28;20171;-90
2021/06/16 06:59:56;;;;;;;6.47;1.77;;;18.10;66.70;;;;;;5074353;28;20207;-90
2021/06/16 07:02:21;;;;;;;10.30;2.40;;;18.30;65.10;;;;;;5074351;28;20175;-90
2021/06/16 07:04:47;;;;;;;3.90;1.50;;;18.40;64.50;;;;;;5074461;28;20197;-89
2021/06/16 07:07:12;;;;;;;5.65;1.88;;;18.60;63.60;;;;;;5056497;28;20179;-89
2021/06/16 07:09:38;;;;;;;8.35;2.08;;;18.40;65.40;;;;;;5056820;28;20211;-89
2021/06/16 07:12:05;;;;;;;7.38;1.77;;;18.50;65.40;;;;;;5074180;28;20167;-90
2021/06/16 07:14:31;;;;;;;7.18;1.88;;;18.70;66.40;;;;;;5056297;28;20290;-89
2021/06/16 07:16:57;;;;;;;11.20;2.08;;;18.90;64.70;;;;;;5056559;28;20662;-90
2021/06/16 07:19:22;;;;;;;5.63;1.73;;;19.00;65.30;;;;;;5073913;28;20187;-90
2021/06/16 07:21:48;;;;;;;6.80;1.85;;;19.20;64.00;;;;;;5073951;28;20199;-90
2021/06/16 07:24:17;;;;;;;5.03;2.08;;;19.20;64.40;;;;;;5073896;28;20175;-89
2021/06/16 07:26:43;;;;;;;6.90;1.98;;;19.40;62.70;;;;;;5073877;28;20184;-89
2021/06/16 07:29:08;;;;;;;4.07;1.73;;;19.10;61.80;;;;;;5073754;28;20272;-89
2021/06/16 07:31:34;;;;;;;7.80;2.20;;;19.10;64.10;;;;;;5056246;28;20541;-89
2021/06/16 07:33:59;;;;;;;7.38;2.10;;;19.40;63.00;;;;;;5056221;28;20174;-89
2021/06/16 07:36:25;;;;;;;3.25;1.60;;;19.50;61.60;;;;;;5073743;28;20171;-89
2021/06/16 07:38:51;;;;;;;4.05;1.60;;;19.80;60.00;;;;;;5073607;28;20210;-89
2021/06/16 07:41:16;;;;;;;5.60;2.13;;;19.90;61.40;;;;;;5073684;28;20166;-90
2021/06/16 07:43:42;;;;;;;10.07;2.22;;;20.20;59.70;;;;;;5073649;28;20258;-90
2021/06/16 07:46:08;;;;;;;3.33;1.60;;;20.30;57.70;;;;;;5073633;28;20163;-90
2021/06/16 07:48:33;;;;;;;7.75;2.28;;;20.50;57.60;;;;;;5073555;28;20250;-90
2021/06/16 07:50:59;;;;;;;7.88;1.90;;;20.40;57.50;;;;;;5073352;28;20202;-90
2021/06/16 07:53:24;;;;;;;4.85;1.40;;;20.40;56.40;;;;;;5055572;28;20175;-90
2021/06/16 07:55:52;;;;;;;7.93;2.10;;;20.30;55.80;;;;;;5073669;28;20265;-90
2021/06/16 07:58:18;;;;;;;4.97;1.65;;;20.50;55.30;;;;;;5073660;28;20662;-90
2021/06/16 08:00:44;;;;;;;8.32;1.80;;;20.60;55.90;;;;;;5073180;28;20214;-90
2021/06/16 08:03:10;;;;;;;5.80;1.95;;;20.70;55.20;;;;;;5055742;28;20233;-90
2021/06/16 08:05:35;;;;;;;6.97;2.00;;;20.30;56.50;;;;;;5055415;28;20587;-89
2021/06/16 08:08:01;;;;;;;8.63;2.40;;;20.20;56.00;;;;;;5055661;28;20175;-90
2021/06/16 08:10:30;;;;;;;7.13;1.83;;;20.40;58.20;;;;;;5055205;28;20253;-89
2021/06/16 08:12:56;;;;;;;6.63;2.00;;;20.60;55.50;;;;;;5055400;28;20177;-88
2021/06/16 08:15:21;;;;;;;9.90;2.00;;;20.70;56.90;;;;;;5055396;28;20617;-88
2021/06/16 08:17:49;;;;;;;4.05;1.65;;;20.90;54.00;;;;;;5055326;28;20670;-88
2021/06/16 08:20:15;;;;;;;9.02;2.08;;;20.90;54.30;;;;;;5055124;28;20191;-88
2021/06/16 08:22:40;;;;;;;5.50;1.73;;;20.80;54.50;;;;;;5055260;28;20175;-88
2021/06/16 08:25:10;;;;;;;8.88;1.60;;;20.90;56.50;;;;;;5055248;28;20179;-88
2021/06/16 08:27:36;;;;;;;7.00;1.75;;;21.10;55.80;;;;;;5073503;28;20179;-89
2021/06/16 08:30:02;;;;;;;9.32;2.03;;;21.40;52.20;;;;;;5055500;28;20690;-89
2021/06/16 08:32:28;;;;;;;6.13;1.73;;;21.50;51.60;;;;;;5055260;28;20174;-89
2021/06/16 08:34:54;;;;;;;6.40;2.00;;;21.40;52.50;;;;;;5055233;28;20569;-88
2021/06/16 08:37:19;;;;;;;9.07;2.10;;;21.20;52.60;;;;;;5055078;28;20167;-88
2021/06/16 08:39:45;;;;;;;8.50;2.35;;;21.30;52.90;;;;;;5055060;28;20206;-88
2021/06/16 08:42:11;;;;;;;13.13;2.05;;;21.20;53.20;;;;;;5055193;28;20210;-88
2021/06/16 08:44:37;;;;;;;5.50;2.22;;;21.40;51.70;;;;;;5073104;28;20171;-88
2021/06/16 08:47:04;;;;;;;7.32;1.73;;;21.70;52.40;;;;;;5072954;28;20179;-88
2021/06/16 08:49:31;;;;;;;8.38;1.75;;;22.00;51.40;;;;;;5072774;28;20261;-88
2021/06/16 08:51:58;;;;;;;6.28;1.65;;;22.10;49.80;;;;;;5054975;28;20183;-88
2021/06/16 08:54:24;;;;;;;6.72;1.83;;;22.20;49.30;;;;;;5054915;28;20191;-89
2021/06/16 08:56:50;;;;;;;9.00;1.98;;;22.50;48.10;;;;;;5054989;28;20263;-89
2021/06/16 08:59:15;;;;;;;6.95;2.70;;;22.40;47.30;;;;;;5072714;28;20270;-88
2021/06/16 09:01:41;;;;;;;8.20;2.10;;;22.30;47.20;;;;;;5054875;28;20175;-88
2021/06/16 09:04:07;;;;;;;6.55;1.65;;;22.30;48.80;;;;;;5054855;28;20178;-89
2021/06/16 09:06:33;;;;;;;9.38;1.80;;;22.60;47.50;;;;;;5054811;28;20179;-88
2021/06/16 09:09:01;;;;;;;8.07;2.10;;;22.70;45.60;;;;;;5054530;28;20171;-88
2021/06/16 09:11:43;;;;;;;6.50;2.03;;;22.80;47.40;;;;;;5054852;28;20172;-89
2021/06/16 09:14:18;;;;;;;8.05;2.15;;;22.80;43.00;;;;;;5057570;28;20159;-89
2021/06/16 09:16:44;;;;;;;6.43;1.90;;;22.70;44.80;;;;;;5076651;28;20151;-89
2021/06/16 09:19:24;;;;;;;5.65;2.08;;;22.80;48.30;;;;;;5058362;28;20644;-89
2021/06/16 09:22:06;;;;;;;5.18;1.65;;;22.90;46.20;;;;;;5076651;28;20159;-87
2021/06/16 09:24:51;;;;;;;4.75;2.00;;;23.10;44.90;;;;;;5076256;28;20167;-88
2021/06/16 09:27:38;;;;;;;5.43;1.73;;;23.20;43.90;;;;;;5058291;28;20175;-89
2021/06/16 09:30:24;;;;;;;6.88;1.55;;;23.30;43.50;;;;;;5058047;28;20694;-88
2021/06/16 09:32:53;;;;;;;5.68;1.40;;;23.00;45.70;;;;;;5058100;28;20669;-90
2021/06/16 09:35:20;;;;;;;9.15;2.40;;;23.30;45.60;;;;;;5058185;28;20178;-90
2021/06/16 09:37:46;;;;;;;8.05;2.08;;;23.70;44.40;;;;;;5075996;28;20164;-90
2021/06/16 09:40:13;;;;;;;8.50;1.83;;;23.70;42.70;;;;;;5075835;28;20531;-90
2021/06/16 09:42:38;;;;;;;11.43;2.28;;;23.70;43.70;;;;;;5057973;28;20175;-90
2021/06/16 09:45:05;;;;;;;5.75;1.63;;;23.60;43.80;;;;;;5058866;28;20175;-90
2021/06/16 09:47:31;;;;;;;8.32;2.13;;;23.70;44.80;;;;;;5057860;28;20206;-90
2021/06/16 09:50:00;;;;;;;9.57;2.10;;;23.20;45.10;;;;;;5057718;28;20207;-90
2021/06/16 09:52:29;;;;;;;6.45;2.33;;;23.50;45.90;;;;;;5058149;28;20658;-90
2021/06/16 09:54:54;;;;;;;7.50;2.00;;;23.70;43.00;;;;;;5057873;28;20178;-90
2021/06/16 09:57:20;;;;;;;10.52;2.13;;;23.90;43.60;;;;;;5058543;28;20254;-89
2021/06/16 09:59:46;;;;;;;3.90;1.60;;;23.60;45.10;;;;;;5057645;28;20576;-90
2021/06/16 10:02:16;;;;;;;6.30;1.98;;;23.50;45.80;;;;;;5057609;28;20190;-90
2021/06/16 10:04:45;;;;;;;6.10;1.88;;;23.50;47.40;;;;;;5075773;28;20567;-90
2021/06/16 10:07:19;;;;;;;7.85;2.00;;;23.50;47.20;;;;;;5057423;28;20702;-90
2021/06/16 10:09:54;;;;;;;8.52;2.63;;;23.80;46.30;;;;;;5057319;28;20775;-89
2021/06/16 10:12:22;;;;;;;10.90;2.90;;;23.90;46.40;;;;;;5075393;28;20166;-90
2021/06/16 10:14:49;;;;;;;6.32;2.03;;;23.70;44.80;;;;;;5057342;28;20167;-89
2021/06/16 10:17:15;;;;;;;6.35;1.88;;;23.90;44.50;;;;;;5057330;28;20261;-90
2021/06/16 10:19:43;;;;;;;9.88;2.42;;;24.00;43.90;;;;;;5057165;28;20202;-90
2021/06/16 10:22:10;;;;;;;4.50;1.83;;;24.00;44.60;;;;;;5058231;28;20268;-88
2021/06/16 10:24:36;;;;;;;7.40;1.55;;;24.20;46.20;;;;;;5057268;28;20183;-88
2021/06/16 10:27:04;;;;;;;8.75;1.80;;;23.90;46.10;;;;;;5075146;28;20167;-88
2021/06/16 10:29:34;;;;;;;6.68;1.75;;;24.30;45.90;;;;;;5056954;28;20219;-88
2021/06/16 10:32:05;;;;;;;5.72;1.65;;;24.50;47.40;;;;;;5057136;28;20171;-88
2021/06/16 10:34:52;;;;;;;5.75;2.58;;;24.70;44.80;;;;;;5074844;28;20168;-88
2021/06/16 10:37:29;;;;;;;6.43;1.67;;;25.00;42.70;;;;;;5056971;28;20171;-87
2021/06/16 10:40:18;;;;;;;9.07;2.05;;;24.70;46.50;;;;;;5056581;28;20678;-87
2021/06/16 10:43:02;;;;;;;10.23;1.65;;;24.90;46.90;;;;;;5062328;28;20573;-88
2021/06/16 10:45:48;;;;;;;6.70;2.05;;;25.00;46.40;;;;;;5056808;28;20202;-88
2021/06/16 10:48:15;;;;;;;8.30;2.10;;;25.00;44.80;;;;;;5056782;28;20175;-88
2021/06/16 10:50:50;;;;;;;14.40;2.10;;;25.00;42.70;;;;;;5056533;28;20698;-88
2021/06/16 10:53:18;;;;;;;8.43;2.53;;;24.90;45.80;;;;;;5074893;28;20230;-88
2021/06/16 10:55:53;;;;;;;5.05;2.05;;;24.70;45.10;;;;;;5056493;28;20171;-88
2021/06/16 10:58:26;;;;;;;3.10;1.60;;;24.80;48.00;;;;;;5074715;28;20511;-88
2021/06/16 11:01:19;;;;;;;5.85;1.88;;;24.90;47.30;;;;;;5075085;28;20215;-88
2021/06/16 11:04:04;;;;;;;3.63;1.80;;;25.30;43.90;;;;;;5047849;28;20564;-88
2021/06/16 11:06:33;;;;;;;4.55;1.95;;;25.30;44.70;;;;;;5056162;28;20724;-88
2021/06/16 11:09:14;;;;;;;4.80;1.42;;;25.50;43.90;;;;;;5056190;28;20182;-88
2021/06/16 11:11:52;;;;;;;4.53;1.50;;;25.70;44.40;;;;;;5074336;28;20152;-88
2021/06/16 11:14:34;;;;;;;5.78;1.70;;;26.00;42.10;;;;;;5056326;28;20178;-88
2021/06/16 11:17:01;;;;;;;5.70;2.00;;;26.00;42.00;;;;;;5056133;28;20178;-88
2021/06/16 11:19:37;;;;;;;6.90;1.73;;;26.00;42.30;;;;;;5073915;28;20210;-88
2021/06/16 11:22:26;;;;;;;6.38;1.50;;;26.20;44.10;;;;;;5039525;28;20191;-88
2021/06/16 11:25:15;;;;;;;7.20;1.83;;;26.30;41.90;;;;;;5073700;28;20179;-88
2021/06/16 11:27:52;;;;;;;5.65;1.77;;;25.90;42.60;;;;;;5074174;28;20235;-88
2021/06/16 11:30:30;;;;;;;6.82;1.83;;;26.20;42.90;;;;;;5073583;28;20203;-89
2021/06/16 11:33:28;;;;;;;6.65;2.10;;;26.50;41.30;;;;;;5055740;28;20643;-88
2021/06/16 11:35:57;;;;;;;9.13;1.30;;;26.40;42.40;;;;;;5055342;28;20171;-90
2021/06/16 11:38:38;;;;;;;5.38;2.00;;;26.50;41.40;;;;;;5055834;28;20203;-88
2021/06/16 11:41:17;;;;;;;3.13;1.58;;;26.40;41.10;;;;;;5073670;28;20192;-88
2021/06/16 11:43:46;;;;;;;6.05;1.70;;;26.70;42.40;;;;;;5074142;28;20670;-88
2021/06/16 11:46:33;;;;;;;4.53;1.70;;;26.80;41.20;;;;;;5055653;28;20677;-86
2021/06/16 11:48:59;;;;;;;5.10;1.92;;;26.50;43.50;;;;;;5073309;28;20148;-86
2021/06/16 11:51:35;;;;;;;5.63;1.45;;;26.70;43.60;;;;;;5055493;28;20221;-86
2021/06/16 11:54:04;;;;;;;6.68;1.73;;;26.20;43.00;;;;;;5055530;28;20573;-88
2021/06/16 11:56:38;;;;;;;5.95;2.03;;;26.30;45.20;;;;;;5073598;28;20255;-87
2021/06/16 11:59:04;;;;;;;4.93;1.55;;;26.70;43.20;;;;;;5055419;28;20259;-87
2021/06/16 12:01:30;;;;;;;7.93;1.92;;;26.80;42.80;;;;;;5073324;28;20276;-87
2021/06/16 12:04:00;;;;;;;7.38;1.77;;;26.90;41.70;;;;;;5055304;28;20171;-87
2021/06/16 12:06:26;;;;;;;7.15;1.63;;;26.70;39.60;;;;;;5055352;28;20175;-87
2021/06/16 12:09:00;;;;;;;3.70;1.85;;;26.90;41.10;;;;;;5073146;28;20175;-87
2021/06/16 12:11:30;;;;;;;7.38;1.85;;;26.80;40.90;;;;;;5073215;28;20178;-87
2021/06/16 12:14:11;;;;;;;4.57;1.88;;;27.20;41.70;;;;;;5055211;28;20230;-87
2021/06/16 12:16:40;;;;;;;4.05;1.80;;;26.90;39.00;;;;;;5055220;28;20594;-87
2021/06/16 12:19:18;;;;;;;4.53;1.77;;;27.00;40.80;;;;;;5055154;28;20180;-87
2021/06/16 12:21:58;;;;;;;4.65;1.90;;;27.00;40.50;;;;;;5055213;28;20175;-87
2021/06/16 12:24:28;;;;;;;6.65;1.63;;;26.90;40.60;;;;;;5073063;28;20541;-87
2021/06/16 12:27:10;;;;;;;4.53;1.85;;;26.80;42.20;;;;;;5073078;28;20258;-87
2021/06/16 12:29:44;;;;;;;5.18;2.05;;;26.80;42.40;;;;;;5054945;28;20210;-87
2021/06/16 12:32:10;;;;;;;5.20;1.70;;;26.90;40.70;;;;;;5073040;28;20147;-87
2021/06/16 12:37:10;;;;;;;3.50;1.60;;;27.40;41.20;;;;;;5073306;28;20168;-87
2021/06/16 12:39:36;;;;;;;6.35;1.80;;;27.60;42.00;;;;;;5054952;28;20649;-87
2021/06/16 12:42:06;;;;;;;6.45;1.67;;;27.70;42.80;;;;;;5054972;28;20643;-87
2021/06/16 12:44:41;;;;;;;4.50;1.33;;;27.70;39.90;;;;;;5055060;28;20519;-87
2021/06/16 12:47:12;;;;;;;6.22;1.70;;;27.70;41.70;;;;;;5054991;28;20182;-87
2021/06/16 12:49:49;;;;;;;4.38;1.58;;;27.90;39.70;;;;;;5058555;28;20219;-87
2021/06/16 12:52:26;;;;;;;10.50;1.65;;;27.90;40.20;;;;;;5058800;28;20168;-87
2021/06/16 12:54:52;;;;;;;3.30;1.75;;;28.10;38.30;;;;;;5076990;28;20692;-87
2021/06/16 12:57:19;;;;;;;5.03;1.70;;;27.90;39.30;;;;;;5058785;28;20172;-87